Terminal Aerodrome Forecast
Issued by NWS

Home | Current Version | Previous Version | Text Only | Print | Product List | Glossary On
Versions: 1 2 3 4 5 6 7 8 9 10 11 12 13 14 15 16
427
FTUS42 KTAE 231722
TAFDHN
TAF
KDHN 231722Z 2318/2418 22010KT 5SM -RA BKN030
     FM232300 20006KT P6SM -RA SCT020 BKN025
     FM241000 22010KT 4SM RA VCTS BKN010 OVC015CB
     FM241500 22010G15KT P6SM BKN025=

USA.gov is the U.S. government's official web portal to all federal, state and local government web resources and services.